Terminal Aerodrome Forecast
Issued by NWS Wilmington, OH

Current Version | Previous Version | Text Only | Print | Product List | Glossary Off
Versions: 1 2 3 4 5 6 7 8 9 10 11 12 13 14 15 16 17 18 19 20 21 22 23 24 25 26 27 28 29 30 31 32 33 34

397
FTUS41 KILN 160207 AAA
TAFDAY
TAF AMD
KDAY 160207Z 1602/1624 09005KT 3SM -DZ BR OVC007
     FM160900 10005KT 1SM -DZ BR OVC005
     FM161500 12005KT 2SM BR OVC007
     FM161800 13006KT 4SM BR OVC012=

USA.gov is the U.S. government's official web portal to all federal, state and local government web resources and services.